Flight Track Log - Related Links

Times and Time Zones

All times are in EDT time to prevent confusion due to time zone crossing. See the ASQ5958 flight status page for this flight to view local times or setup timezone preferences in your user account.

Time Position Orientation Groundspeed Altitude Reporting Facility
EDT Latitude Longitude Course Direction KTS MPH feet Rate Location/Type
Mon 12:15:45 PM 43.0967 -76.0858 123° Southeast 166 191 1,200  Level Boston Center
Mon 12:16:46 PM 43.0692 -76.0272 123° Southeast 194 223 3,300 2,043 Climbing Boston Center
Mon 12:18:00 PM 43.0629 -76.1854 283° West  Level Estimated
Mon 12:20:24 PM 43.1453 -76.2292 280° West 225 259 10,700  Level Cleveland Center
Mon 12:21:25 PM 43.1456 -76.3458 270° West 271 312 11,900 1,439 Climbing Cleveland Center
Mon 12:24:05 PM 43.1333 -76.6833 267° West 350 403 16,000 1,431 Climbing Toronto Center
Mon 12:25:00 PM 43.0234 -77.0824 280° West  Level Estimated
Mon 12:25:24 PM 43.1433 -76.8925 274° West 363 418 17,600  Level Cleveland Center
Mon 12:26:24 PM 43.1417 -77.0378 269° West 375 432 18,700 1,140 Climbing Cleveland Center
Mon 12:27:25 PM 43.1397 -77.1831 269° West 381 438 19,900 1,180 Climbing Cleveland Center
Mon 12:28:26 PM 43.1397 -77.3311 270° West 386 444 21,100 1,190 Climbing Cleveland Center
Mon 12:29:26 PM 43.1378 -77.4819 269° West 386 444 22,300 1,247 Climbing Cleveland Center
Mon 12:31:24 PM 43.1350 -77.7808 269° West 397 457 24,800 1,260 Climbing Cleveland Center
Mon 12:33:05 PM 43.1167 -78.0167 264° West 390 449 26,900 1,200 Climbing Toronto Center
Mon 12:33:24 PM 43.1292 -78.0800 285° West 397 457 27,200 1,157 Climbing Cleveland Center
Mon 12:35:25 PM 43.1267 -78.3558 269° West 392 451 29,600 1,187 Climbing Cleveland Center
Mon 12:36:26 PM 43.1231 -78.4983 268° West 387 445 30,800 1,240 Climbing Cleveland Center
Mon 12:38:24 PM 43.1172 -78.7858 269° West 387 445 33,300 1,225 Climbing Cleveland Center
Mon 12:40:26 PM 43.1089 -79.0675 268° West 382 440 35,700 733 Climbing Cleveland Center
Mon 12:42:05 PM 43.1000 -79.3167 267° West 380 437 36,000 113 Climbing Toronto Center
Mon 12:43:05 PM 43.0833 -79.4667 261° West 400 460 36,000  Level Toronto Center
Mon 12:45:05 PM 43.0833 -79.8000 270° West 430 495 36,000  Level Toronto Center
Mon 12:47:00 PM 43.0753 -80.0460 268° West  Level FlightAware Approximate
Mon 12:48:05 PM 43.0667 -80.2667 268° West 430 495 36,000  Level Toronto Center
Mon 12:49:05 PM 43.0667 -80.4333 270° West 430 495 36,000  Level Toronto Center
Mon 12:50:06 PM 43.0500 -80.5833 261° West 430 495 36,000  Level Toronto Center
Mon 12:51:05 PM 43.0500 -80.7667 270° West 430 495 36,000  Level Toronto Center
Mon 12:52:05 PM 43.0333 -80.9333 262° West 430 495 36,000  Level Toronto Center
Mon 12:53:05 PM 43.0167 -81.1000 262° West 440 506 36,000  Level Toronto Center
Mon 12:54:05 PM 43.0167 -81.2500 270° West 440 506 36,000  Level Toronto Center
Mon 12:55:06 PM 43.0167 -81.4333 270° West 450 518 36,000  Level Toronto Center
Mon 12:56:05 PM 43.0167 -81.6000 270° West 440 506 36,000  Level Toronto Center
Mon 12:57:05 PM 43.0167 -81.7500 270° West 440 506 36,000  Level Toronto Center
Mon 12:58:05 PM 43.0000 -81.9333 263° West 440 506 36,000  Level Toronto Center
Mon 12:59:37 PM 43.0139 -82.1903 274° West 440 506 36,000  Level Cleveland Center
Mon 01:00:05 PM 43.0000 -82.2500 252° West 420 483 36,000  Level Toronto Center
Mon 01:02:00 PM 43.1278 -82.4595 303° West  Level FlightAware Approximate
Mon 01:02:39 PM 43.1681 -82.5842 303° West 394 453 36,000  Level Cleveland Center
Mon 01:05:00 PM 43.1337 -82.8539 260° West  Level FlightAware Approximate
Mon 01:05:39 PM 43.1781 -83.0431 260° West 415 478 36,000  Level Cleveland Center
Mon 01:07:00 PM 43.1409 -83.2293 255° West  Level FlightAware Approximate
Mon 01:09:38 PM 43.0786 -83.7014 258° West 446 513 34,000  Level Cleveland Center
Mon 01:11:00 PM 43.0414 -83.8701 259° West  Level FlightAware Approximate
Mon 01:11:36 PM 43.0278 -84.0256 259° West 441 507 32,500  Level Cleveland Center
Mon 01:12:37 PM 43.0019 -84.1889 258° West 446 513 32,000 -143 Descending Cleveland Center
Mon 01:14:00 PM 42.9902 -84.2059 259° West  Level FlightAware Approximate
Mon 01:15:00 PM 42.9689 -84.3454 258° West  Level FlightAware Approximate
Mon 01:15:06 PM 42.9167 -84.6000 254° West 460 529 32,000  Level Toronto Center
Mon 01:15:59 PM 42.9156 -84.7247 269° West 451 519 32,000  Level Chicago Center
Mon 01:17:01 PM 42.8864 -84.9042 258° West 413 475 32,000 -65 Level Chicago Center
Mon 01:19:05 PM 42.8372 -85.1978 257° West 400 460 31,800 -677 Descending Chicago Center
Mon 01:21:00 PM 42.7859 -85.4602 261° West  Level FlightAware Approximate
Mon 01:22:11 PM 42.7564 -85.6611 261° West 412 474 28,500  Level Chicago Center
Mon 01:23:13 PM 42.7300 -85.8061 256° West 397 457 26,500 -1,210 Descending Chicago Center
Mon 01:24:15 PM 42.6606 -85.9378 234° Southwest 361 415 26,000 -726 Descending Chicago Center
Mon 01:25:17 PM 42.5922 -86.0394 228° Southwest 361 415 25,000 -1,604 Descending Chicago Center
Mon 01:27:00 PM 42.5216 -86.2620 251° West  Level Estimated
Mon 01:27:22 PM 42.6353 -86.2778 251° West 346 398 21,000  Level Chicago Center
Mon 01:29:26 PM 42.5953 -86.5319 258° West 365 420 19,000 -1,761 Descending Chicago Center
Mon 01:31:00 PM 42.5431 -86.7422 250° West  Level FlightAware Approximate
Mon 01:32:32 PM 42.5008 -86.9472 217° Southwest 352 405 11,900  Level Chicago Center
Mon 01:34:00 PM 42.4381 -87.1357 246° West  Level FlightAware Approximate
Mon 01:35:25 PM 42.4000 -87.3167 246° West 355 409 10,000  Level Chicago TRACON
Mon 01:36:20 PM 42.3667 -87.4167 246° West 357 411 10,000  Level Chicago TRACON
Mon 01:36:40 PM 42.3614 -87.4519 259° West 359 413 10,000  Level Chicago Center
Mon 01:38:00 PM 42.2545 -87.6121 217° Southwest  Level FlightAware Approximate
Mon 01:38:14 PM 42.2500 -87.6167 228° Southwest 345 397 10,000  Level Chicago TRACON
Mon 01:38:45 PM 42.2206 -87.6597 227° Southwest 347 399 10,000  Level Chicago Center
Mon 01:40:20 PM 42.1000 -87.7833 217° Southwest 306 352 10,000 -458 Level Chicago TRACON
Mon 01:42:00 PM 41.9817 -87.9067 206° Southwest  Level Estimated
Mon 01:43:20 PM 42.0500 -88.0167 206° Southwest 195 224 7,900  Level Chicago TRACON
Mon 01:44:57 PM 42.0494 -88.1358 270° West 196 226 5,800 -1,367 Descending Chicago Center
Mon 01:46:20 PM 42.0000 -88.1167 164° South 171 197 3,800 -1,208 Descending Chicago TRACON
Mon 01:47:26 PM 41.9833 -88.0667 114° Southeast 163 188 2,800 -796 Descending Chicago TRACON
Mon 01:49:21 PM 41.9833 -87.9667 90° East 127 146 1,400 -730 Descending Chicago TRACON
Mon 01:52:00 PM 41.9817 -87.9067 97° East  Level Estimated
Mon 01:59:00 PM 41.9817 -87.9067 97° East  Level Estimated
Mon 02:00:00 PM 41.9817 -87.9067 97° East  Level Estimated
Mon 02:01:00 PM 41.9817 -87.9067 97° East  Level Estimated
Mon 02:02:00 PM 41.9817 -87.9067 97° East  Level Estimated
Mon 02:03:00 PM 41.9817 -87.9067 97° East  Level Estimated
Mon 02:04:00 PM 41.9817 -87.9067 97° East  Level Estimated
Mon 02:05:00 PM 41.9817 -87.9067 97° East  Level Estimated
Mon 02:06:00 PM 41.9817 -87.9067 97° East  Level Estimated

Login

Don't have an account? Register now (free) for customized features, flight alerts, and more!